Terminal Aerodrome Forecast
Issued by NWS Melbourne, FL

Home | Current Version | Previous Version | Text Only | Print | Product List | Glossary On
Versions: 1 2 3 4 5 6 7 8 9 10 11 12 13
000
FTUS42 KMLB 201700 RRA
TAFDAB
TAF
KDAB 201743Z 2018/2118 08006KT P6SM SCT040 SCT060
     FM202200 00000KT P6SM BKN250
     FM211400 26004KT P6SM SCT030 BKN150 OVC250=

USA.gov is the U.S. government's official web portal to all federal, state and local government web resources and services.